Airfield :
LOGIN :

Register | Disclaimer

   EN    FR    IT 

 










Legend :    VFR   Marginal VFR   IFR   Intensive IFR   Very Intensive IFR
Visi :
Ceiling :
>= 8 km
>= 3000ft
5 to 8 km
1000 to 3000 ft
1500m to 5 km
500 to 1000 ft
800 to 1500m
200 to 500 ft
< 800m
< 200 ft
Symbols :   Thunderstorms  Fog  Heavy snow  Heavy precipitations  Wind > 20 kt
SIGMETs :     Misc.  Thunderstorms  Icing  Turbulence  Mountain Waves  Volcanic Ashes






- Airport Elevation : 24 ft
- IATA code : FAO


LPFR - Faro

CURRENT METAR :
  • 302000Z 05010KT 9999 FEW008 BKN012 13/12 Q1005

EXPIRED METARs :
  • 301930Z 06009KT 9999 FEW008 BKN012 13/12 Q1005
  • 301900Z 07011KT 9999 FEW008 BKN012 13/12 Q1005
  • 301830Z 06010KT 9999 FEW008 BKN012 13/12 Q1005
  • 301800Z 08010KT 9999 SCT008 SCT018 FEW025CB 13/12 Q1006
  • 301730Z 08011KT 9999 FEW006 FEW025CB 13/13 Q1006

TAF TAF LPFR
Valid from the 30 at 18:00 until the 31 at 18:00 UTC


301700Z 3018/3118 08012KT 9999 SCT012 BKN025
TEMPO 3018/3118 5000 RA SCT006 BKN012 FEW020TCU
PROB30
TEMPO 3018/3112 3000 TSRA SCT018CB
BECMG 3021/3023 19008KT
BECMG 3106/3109 23010KT
BECMG 3112/3115 26015KT



MET'MAP, your aeronautical weather chart ! - Copyright ORBIFLY December 2007 - Disclaimer

ORBIFLY MET'MAP TEAM :

Programming & Development : Alexandra Zaïnal
Concept & original design : Baudouin d'Aumeries
Assistance for programming : Marc-Olivier Méhu
Technical & hardware support : Manuel Goepfert

Contact : metmap@orbifly.com




SOURCES & CREDITS :

   NOAA